»·PEaware :: SWA3719 KSMF-KDEN

SWA3719 :: KSMF-KDEN

FLIGHT INFORMATION

Flight Status: Arrived
Operator:
Southwest Airlines
More flights by this operator :: More flights under this callsign
Pilot: Andrew M. (139)
Aircraft: BOEING 737-800
(B738)
More flights by this aircraft type
Origin: KSMF Sacramento Intl
United States
Destination: KDEN Denver Intl
United States
More flights between these airports :: More routes between these airports
Route: +RVRCT2 RALEY INSLO DTA J84 EKR KAILE2
File this flight plan on PilotEdge
Remarks: PBN / A1B1C1D1S1S2 DOF / 181222 REG / N608BT EET / KZLC0028 KZDV0108 OPR / SWA PER / C RMK / TCAS SIMBRIEF
Altitude:
(Current/Filed)
35,000ft
Speed:
(Current/Filed)
453kts
Departed: 21-Dec-18 05:59 PM
Arrived: 21-Dec-18 09:08 PM
Distance/Time
Traveled:
787nm/3:09
Distance/Time
To Go:
Arrived

Flight Plot

Page will automatically refresh every two minutes.

Flight plan parsing failed; only flown route is shown


Map Options




Map Legend


Flown Route
Filed Route
Departure Airport
Arrival Airport
Navaid (VOR, NDB)
Fix

Horizontal Profiles

Position Reports

Time Latitude Longitude Heading Altitude Ground
Speed
21-Dec-18 17:23 38.695155 -121.594523 25 27ft 0kts
21-Dec-18 17:24 38.695155 -121.594523 25 27ft 0kts
21-Dec-18 17:25 38.695155 -121.594523 25 27ft 0kts
21-Dec-18 17:26 38.695155 -121.594523 25 27ft 0kts
21-Dec-18 17:27 38.695155 -121.594523 25 27ft 0kts
21-Dec-18 17:28 38.695155 -121.594523 25 27ft 0kts
21-Dec-18 17:29 38.695155 -121.594523 25 27ft 0kts
21-Dec-18 17:30 38.695155 -121.594523 25 27ft 0kts
21-Dec-18 17:31 38.695155 -121.594523 25 27ft 0kts
21-Dec-18 17:31 38.695155 -121.594523 25 27ft 0kts
21-Dec-18 17:33 38.695155 -121.594523 25 27ft 0kts
21-Dec-18 17:34 38.695155 -121.594523 25 27ft 0kts
21-Dec-18 17:34 38.695155 -121.594523 25 27ft 0kts
21-Dec-18 17:36 38.695155 -121.594523 25 27ft 0kts
21-Dec-18 17:36 38.695155 -121.594523 25 27ft 0kts
21-Dec-18 17:38 38.695155 -121.594523 25 27ft 0kts
21-Dec-18 17:38 38.695155 -121.594523 25 27ft 0kts
21-Dec-18 17:39 38.695155 -121.594523 25 27ft 0kts
21-Dec-18 17:41 38.695155 -121.594523 25 27ft 0kts
21-Dec-18 17:41 38.695155 -121.594523 25 27ft 0kts
21-Dec-18 17:42 38.695155 -121.594523 25 27ft 0kts
21-Dec-18 17:43 38.695155 -121.594523 25 27ft 0kts
21-Dec-18 17:44 38.695155 -121.594523 25 27ft 0kts
21-Dec-18 17:45 38.695155 -121.594523 25 27ft 0kts
21-Dec-18 17:46 38.694664 -121.594340 298 28ft 2kts
21-Dec-18 17:47 38.694611 -121.594072 268 28ft 0kts
21-Dec-18 17:48 38.694611 -121.594072 268 28ft 0kts
21-Dec-18 17:49 38.694611 -121.594072 268 28ft 0kts
21-Dec-18 17:50 38.694610 -121.594617 268 28ft 7kts
21-Dec-18 17:51 38.694670 -121.598039 269 27ft 9kts
21-Dec-18 17:52 38.692166 -121.598708 180 26ft 12kts
21-Dec-18 17:53 38.688457 -121.598780 180 26ft 14kts
21-Dec-18 17:54 38.684401 -121.598838 181 24ft 9kts
21-Dec-18 17:55 38.683839 -121.599998 270 24ft 0kts
21-Dec-18 17:56 38.683839 -121.599998 270 24ft 0kts
21-Dec-18 17:57 38.684634 -121.601445 357 24ft 7kts
21-Dec-18 17:58 38.708794 -121.600836 2 289ft 152kts
21-Dec-18 17:59 38.745514 -121.576849 77 1749ft 194kts
21-Dec-18 18:00 38.732308 -121.502833 106 3614ft 228kts
21-Dec-18 18:01 38.713124 -121.422339 102 5856ft 242kts
21-Dec-18 18:02 38.700391 -121.340140 98 7902ft 253kts
21-Dec-18 18:03 38.692794 -121.244383 95 9773ft 274kts
21-Dec-18 18:04 38.684012 -121.136742 95 10590ft 331kts
21-Dec-18 18:05 38.674148 -121.016087 94 12393ft 351kts
21-Dec-18 18:06 38.663749 -120.888909 94 14330ft 370kts
21-Dec-18 18:07 38.652610 -120.754528 94 16295ft 390kts
21-Dec-18 18:08 38.646280 -120.613281 88 18174ft 406kts
21-Dec-18 18:09 38.643231 -120.466123 89 20026ft 420kts
21-Dec-18 18:10 38.639758 -120.315921 89 21724ft 433kts
21-Dec-18 18:11 38.636030 -120.160096 89 23253ft 445kts
21-Dec-18 18:12 38.631914 -119.999206 89 24581ft 459kts
21-Dec-18 18:13 38.627450 -119.834423 89 25904ft 471kts
21-Dec-18 18:14 38.622621 -119.665196 89 27165ft 481kts
21-Dec-18 18:15 38.617408 -119.492127 89 28377ft 490kts
21-Dec-18 18:16 38.611822 -119.315460 90 29329ft 503kts
21-Dec-18 18:17 38.605971 -119.134965 90 30363ft 510kts
21-Dec-18 18:18 38.599722 -118.952867 90 31408ft 515kts
21-Dec-18 18:19 38.593081 -118.769577 91 32570ft 515kts
21-Dec-18 18:20 38.586190 -118.588420 91 33828ft 510kts
21-Dec-18 18:21 38.579052 -118.407794 91 34938ft 507kts
21-Dec-18 18:22 38.573857 -118.229403 83 35122ft 518kts
21-Dec-18 18:23 38.593906 -118.047645 78 35116ft 516kts
21-Dec-18 18:24 38.615016 -117.866470 79 35099ft 515kts
21-Dec-18 18:25 38.635794 -117.684693 79 35095ft 515kts
21-Dec-18 18:26 38.656288 -117.502723 79 35098ft 516kts
21-Dec-18 18:27 38.676416 -117.321589 79 35087ft 516kts
21-Dec-18 18:48 38.695155 -121.594523 25 27ft 0kts
21-Dec-18 18:49 38.695155 -121.594523 25 27ft 0kts
21-Dec-18 18:50 38.695155 -121.594523 25 27ft 0kts
21-Dec-18 18:51 38.695155 -121.594523 25 27ft 0kts
21-Dec-18 18:52 38.695155 -121.594523 25 27ft 0kts
21-Dec-18 18:53 38.695155 -121.594523 25 27ft 0kts
21-Dec-18 18:54 38.695155 -121.594523 25 27ft 0kts
21-Dec-18 18:55 38.695155 -121.594523 25 27ft 0kts
21-Dec-18 18:56 38.695155 -121.594523 25 27ft 0kts
21-Dec-18 18:57 38.695155 -121.594523 25 27ft 0kts
21-Dec-18 18:58 38.695155 -121.594523 25 27ft 0kts
21-Dec-18 18:59 38.695155 -121.594523 25 27ft 0kts
21-Dec-18 19:00 38.695155 -121.594523 25 27ft 0kts
21-Dec-18 19:01 38.695155 -121.594523 25 27ft 0kts
21-Dec-18 19:02 38.695155 -121.594523 25 27ft 0kts
21-Dec-18 19:03 38.695155 -121.594523 25 27ft 0kts
21-Dec-18 19:04 38.695155 -121.594523 25 27ft 0kts
21-Dec-18 19:05 38.695155 -121.594523 25 27ft 0kts
21-Dec-18 19:06 38.695155 -121.594523 25 27ft 0kts
21-Dec-18 19:07 38.694866 -121.594552 338 27ft 2kts
21-Dec-18 19:08 38.694611 -121.594072 267 28ft 0kts
21-Dec-18 19:09 38.694611 -121.594072 268 28ft 0kts
21-Dec-18 19:10 38.694611 -121.594072 268 28ft 0kts
21-Dec-18 19:11 38.694611 -121.594072 268 28ft 0kts
21-Dec-18 19:12 38.694618 -121.595944 271 27ft 9kts
21-Dec-18 19:13 38.694097 -121.598664 184 27ft 7kts
21-Dec-18 19:14 38.691274 -121.598719 180 26ft 11kts
21-Dec-18 19:15 38.688214 -121.598777 180 26ft 11kts
21-Dec-18 19:16 38.684815 -121.598825 180 24ft 10kts
21-Dec-18 19:17 38.683855 -121.599903 268 24ft 2kts
21-Dec-18 19:18 38.683854 -121.599944 268 24ft 1kts
21-Dec-18 19:19 38.684816 -121.601462 359 24ft 14kts
21-Dec-18 19:20 38.716835 -121.600396 2 791ft 161kts
21-Dec-18 19:21 38.743860 -121.564379 107 2532ft 200kts
21-Dec-18 19:23 38.727597 -121.488032 99 4644ft 235kts
21-Dec-18 19:24 38.711481 -121.396536 102 6669ft 274kts
21-Dec-18 19:25 38.695641 -121.300455 94 9060ft 286kts
21-Dec-18 19:26 38.688139 -121.192910 94 10468ft 331kts
21-Dec-18 19:27 38.678529 -121.072269 94 12509ft 352kts
21-Dec-18 19:28 38.668175 -120.944469 94 14519ft 372kts
21-Dec-18 19:29 38.657067 -120.809102 94 16484ft 391kts
21-Dec-18 19:30 38.646921 -120.667282 88 18375ft 407kts
21-Dec-18 19:31 38.644437 -120.519686 89 20193ft 422kts
21-Dec-18 19:32 38.640980 -120.367229 89 21913ft 435kts
21-Dec-18 19:33 38.637315 -120.211028 89 23438ft 447kts
21-Dec-18 19:34 38.633299 -120.049726 89 24810ft 459kts
21-Dec-18 19:35 38.628920 -119.884602 89 26019ft 472kts
21-Dec-18 19:36 38.624148 -119.715397 89 27277ft 482kts
21-Dec-18 19:37 38.618995 -119.542499 89 28437ft 492kts
21-Dec-18 19:38 38.613437 -119.365461 89 29495ft 502kts
21-Dec-18 19:38 38.608641 -119.215647 90 30292ft 510kts
21-Dec-18 19:40 38.601480 -119.003164 90 31512ft 515kts
21-Dec-18 19:41 38.594979 -118.820800 91 32714ft 513kts
21-Dec-18 19:42 38.588156 -118.638481 91 33832ft 512kts
21-Dec-18 19:43 38.581103 -118.458077 91 34989ft 506kts
21-Dec-18 19:43 38.575120 -118.309577 92 35124ft 519kts
21-Dec-18 19:45 38.588159 -118.096260 79 35125ft 516kts
21-Dec-18 19:45 38.605864 -117.945786 79 35116ft 528kts
21-Dec-18 19:47 38.630740 -117.729318 78 35103ft 526kts
21-Dec-18 19:47 38.648182 -117.575052 78 35107ft 526kts
21-Dec-18 19:48 38.668918 -117.389211 78 35110ft 527kts
21-Dec-18 19:49 38.692969 -117.205079 75 35095ft 525kts
21-Dec-18 19:50 38.720861 -117.021506 75 35098ft 524kts
21-Dec-18 19:51 38.748175 -116.837607 76 35101ft 526kts
21-Dec-18 19:52 38.775096 -116.654291 76 35105ft 525kts
21-Dec-18 19:53 38.801808 -116.470364 76 35109ft 525kts
21-Dec-18 19:54 38.828229 -116.286533 76 35096ft 524kts
21-Dec-18 19:55 38.854371 -116.102614 76 35096ft 524kts
21-Dec-18 19:56 38.880125 -115.918682 77 35092ft 522kts
21-Dec-18 19:57 38.905466 -115.735300 77 35096ft 523kts
21-Dec-18 19:58 38.930488 -115.551921 76 35100ft 521kts
21-Dec-18 19:59 38.955172 -115.368818 77 35104ft 521kts
21-Dec-18 20:00 38.979677 -115.185609 77 35092ft 521kts
21-Dec-18 20:01 39.003857 -115.001987 77 35090ft 519kts
21-Dec-18 20:02 39.024711 -114.841417 77 35091ft 519kts
21-Dec-18 20:03 39.048230 -114.658013 78 35095ft 518kts
21-Dec-18 20:04 39.071366 -114.475136 78 35098ft 517kts
21-Dec-18 20:05 39.094211 -114.292543 78 35087ft 518kts
21-Dec-18 20:06 39.116854 -114.109768 78 35078ft 516kts
21-Dec-18 20:07 39.139065 -113.927436 78 35064ft 513kts
21-Dec-18 20:08 39.160924 -113.745268 79 35067ft 514kts
21-Dec-18 20:09 39.182451 -113.563362 79 35070ft 514kts
21-Dec-18 20:10 39.203758 -113.380821 79 35072ft 514kts
21-Dec-18 20:11 39.224715 -113.199789 80 35062ft 515kts
21-Dec-18 20:12 39.245529 -113.017102 80 35063ft 515kts
21-Dec-18 20:13 39.266037 -112.834223 80 35059ft 514kts
21-Dec-18 20:14 39.286167 -112.651845 80 35059ft 514kts
21-Dec-18 20:15 39.308073 -112.469874 73 35061ft 513kts
21-Dec-18 20:16 39.342366 -112.291618 74 35042ft 513kts
21-Dec-18 20:17 39.375771 -112.112627 74 35044ft 512kts
21-Dec-18 20:18 39.408813 -111.933569 74 35042ft 513kts
21-Dec-18 20:19 39.441699 -111.753573 75 35039ft 514kts
21-Dec-18 20:20 39.474263 -111.573457 75 35042ft 514kts
21-Dec-18 20:21 39.506566 -111.392878 74 35044ft 514kts
21-Dec-18 20:22 39.538451 -111.213747 75 35030ft 515kts
21-Dec-18 20:23 39.570289 -111.032647 75 35032ft 514kts
21-Dec-18 20:24 39.601731 -110.851711 75 35047ft 515kts
21-Dec-18 20:25 39.633040 -110.669572 76 35050ft 516kts
21-Dec-18 20:26 39.664075 -110.487080 76 35053ft 516kts
21-Dec-18 20:27 39.694700 -110.305286 76 35040ft 516kts
21-Dec-18 20:28 39.725209 -110.122948 76 35043ft 517kts
21-Dec-18 20:29 39.755334 -109.940508 77 35039ft 517kts
21-Dec-18 20:30 39.784857 -109.760090 76 35022ft 491kts
21-Dec-18 20:31 39.813611 -109.581935 76 35047ft 516kts
21-Dec-18 20:32 39.842812 -109.398932 76 35046ft 517kts
21-Dec-18 20:33 39.871924 -109.215130 77 35034ft 519kts
21-Dec-18 20:34 39.900763 -109.031351 77 35031ft 519kts
21-Dec-18 20:35 39.929375 -108.846694 77 35029ft 519kts
21-Dec-18 20:36 39.957567 -108.662367 77 35032ft 519kts
21-Dec-18 20:37 39.985490 -108.477453 77 35034ft 517kts
21-Dec-18 20:38 40.012500 -108.296989 77 35025ft 517kts
21-Dec-18 20:39 40.039859 -108.112946 77 35033ft 518kts
21-Dec-18 20:40 40.066915 -107.928462 76 35046ft 518kts
21-Dec-18 20:41 40.102808 -107.751019 72 35049ft 516kts
21-Dec-18 20:42 40.139788 -107.567957 72 35050ft 515kts
21-Dec-18 20:43 40.175867 -107.387808 72 35054ft 513kts
21-Dec-18 20:44 40.211077 -107.210922 73 35041ft 512kts
21-Dec-18 20:45 40.246522 -107.031107 73 35021ft 510kts
21-Dec-18 20:46 40.281438 -106.852073 73 34051ft 508kts
21-Dec-18 20:47 40.315941 -106.673374 73 33076ft 506kts
21-Dec-18 20:48 40.349949 -106.495499 73 32122ft 507kts
21-Dec-18 20:49 40.383651 -106.317791 74 31168ft 507kts
21-Dec-18 20:50 40.417392 -106.138785 74 30155ft 507kts
21-Dec-18 20:51 40.438407 -105.959114 93 28510ft 494kts
21-Dec-18 20:52 40.411730 -105.781663 102 24771ft 495kts
21-Dec-18 20:53 40.384717 -105.611988 101 21841ft 453kts
21-Dec-18 20:54 40.360113 -105.458435 101 19216ft 409kts
21-Dec-18 20:55 40.340760 -105.321176 100 17812ft 359kts
21-Dec-18 20:56 40.323542 -105.194983 100 16292ft 348kts
21-Dec-18 20:57 40.306385 -105.070907 100 14603ft 344kts
21-Dec-18 20:58 40.289305 -104.948534 101 13028ft 336kts
21-Dec-18 20:59 40.269985 -104.831251 115 11400ft 324kts
21-Dec-18 21:00 40.212345 -104.750737 137 10013ft 284kts
21-Dec-18 21:01 40.158587 -104.686425 158 9210ft 248kts
21-Dec-18 21:02 40.092373 -104.684235 180 8463ft 225kts
21-Dec-18 21:03 40.034123 -104.685168 180 8159ft 202kts
21-Dec-18 21:04 39.981923 -104.685844 177 7131ft 166kts
21-Dec-18 21:05 39.939822 -104.686288 179 6323ft 152kts
21-Dec-18 21:06 39.897425 -104.686766 179 5497ft 151kts
21-Dec-18 21:07 39.877432 -104.686408 157 5442ft 15kts
21-Dec-18 21:08 39.876404 -104.685721 150 5442ft 6kts
21-Dec-18 21:09 39.875071 -104.684929 166 5441ft 7kts
21-Dec-18 21:10 39.873253 -104.684916 179 5442ft 5kts
21-Dec-18 21:11 39.871545 -104.684945 180 5442ft 8kts
21-Dec-18 21:12 39.869072 -104.684976 181 5442ft 8kts
21-Dec-18 21:13 39.866994 -104.685022 179 5442ft 7kts
21-Dec-18 21:14 39.864956 -104.684994 181 5442ft 7kts
21-Dec-18 21:15 39.864238 -104.683545 89 5442ft 6kts
21-Dec-18 21:16 39.864543 -104.681699 45 5442ft 6kts
21-Dec-18 21:17 39.864733 -104.679513 91 5442ft 8kts

Navigation Log

Ident Type
Flight plan parsing failed, navigation log unavailable